sensor_id;sensor_type;location;lat;lon;timestamp;P1;durP1;ratioP1;P2;durP2;ratioP2
68854;SDS011;69984;-43.570;172.580;2023-06-10T00:00:38;4.15;;;2.47;;
68854;SDS011;69984;-43.570;172.580;2023-06-10T00:03:09;3.15;;;2.60;;
68854;SDS011;69984;-43.570;172.580;2023-06-10T00:05:37;6.95;;;2.80;;
68854;SDS011;69984;-43.570;172.580;2023-06-10T00:08:05;4.22;;;2.60;;
68854;SDS011;69984;-43.570;172.580;2023-06-10T00:10:36;2.90;;;2.40;;
68854;SDS011;69984;-43.570;172.580;2023-06-10T00:13:04;3.97;;;2.40;;
68854;SDS011;69984;-43.570;172.580;2023-06-10T00:15:36;5.13;;;2.72;;
68854;SDS011;69984;-43.570;172.580;2023-06-10T00:18:04;3.60;;;2.70;;
68854;SDS011;69984;-43.570;172.580;2023-06-10T00:20:31;7.00;;;2.85;;
68854;SDS011;69984;-43.570;172.580;2023-06-10T00:22:58;3.70;;;2.30;;
68854;SDS011;69984;-43.570;172.580;2023-06-10T00:25:27;2.88;;;1.95;;
68854;SDS011;69984;-43.570;172.580;2023-06-10T00:27:54;4.43;;;2.28;;
68854;SDS011;69984;-43.570;172.580;2023-06-10T00:30:21;7.05;;;2.47;;
68854;SDS011;69984;-43.570;172.580;2023-06-10T00:32:48;2.90;;;2.28;;
68854;SDS011;69984;-43.570;172.580;2023-06-10T00:35:15;3.13;;;2.65;;
68854;SDS011;69984;-43.570;172.580;2023-06-10T00:37:42;9.00;;;2.97;;
68854;SDS011;69984;-43.570;172.580;2023-06-10T00:40:10;14.23;;;2.58;;
68854;SDS011;69984;-43.570;172.580;2023-06-10T00:42:37;21.17;;;2.20;;
68854;SDS011;69984;-43.570;172.580;2023-06-10T00:45:05;15.43;;;2.30;;
68854;SDS011;69984;-43.570;172.580;2023-06-10T00:47:33;7.07;;;1.40;;
68854;SDS011;69984;-43.570;172.580;2023-06-10T00:50:01;6.57;;;1.58;;
68854;SDS011;69984;-43.570;172.580;2023-06-10T00:52:29;9.02;;;1.90;;
68854;SDS011;69984;-43.570;172.580;2023-06-10T00:54:56;8.43;;;1.88;;
68854;SDS011;69984;-43.570;172.580;2023-06-10T00:57:25;8.48;;;1.48;;
68854;SDS011;69984;-43.570;172.580;2023-06-10T00:59:52;6.63;;;1.58;;
68854;SDS011;69984;-43.570;172.580;2023-06-10T01:02:20;7.80;;;2.30;;
68854;SDS011;69984;-43.570;172.580;2023-06-10T01:04:47;5.18;;;1.05;;
68854;SDS011;69984;-43.570;172.580;2023-06-10T01:10:18;4.55;;;1.42;;
68854;SDS011;69984;-43.570;172.580;2023-06-10T01:15:21;3.15;;;0.90;;
68854;SDS011;69984;-43.570;172.580;2023-06-10T01:17:56;4.70;;;0.95;;
68854;SDS011;69984;-43.570;172.580;2023-06-10T01:20:31;5.05;;;1.40;;
68854;SDS011;69984;-43.570;172.580;2023-06-10T01:22:59;2.45;;;0.75;;
68854;SDS011;69984;-43.570;172.580;2023-06-10T01:25:28;5.15;;;0.88;;
68854;SDS011;69984;-43.570;172.580;2023-06-10T01:30:35;2.40;;;0.47;;
68854;SDS011;69984;-43.570;172.580;2023-06-10T01:33:09;4.32;;;0.52;;
68854;SDS011;69984;-43.570;172.580;2023-06-10T01:35:40;1.65;;;0.68;;
68854;SDS011;69984;-43.570;172.580;2023-06-10T01:38:10;2.50;;;0.75;;
68854;SDS011;69984;-43.570;172.580;2023-06-10T01:40:40;2.28;;;1.00;;
68854;SDS011;69984;-43.570;172.580;2023-06-10T01:43:08;2.10;;;0.52;;
68854;SDS011;69984;-43.570;172.580;2023-06-10T01:45:36;5.15;;;0.90;;
68854;SDS011;69984;-43.570;172.580;2023-06-10T01:48:03;7.25;;;0.60;;
68854;SDS011;69984;-43.570;172.580;2023-06-10T01:50:30;4.82;;;0.73;;
68854;SDS011;69984;-43.570;172.580;2023-06-10T01:52:57;5.13;;;0.75;;
68854;SDS011;69984;-43.570;172.580;2023-06-10T01:55:26;7.63;;;1.05;;
68854;SDS011;69984;-43.570;172.580;2023-06-10T01:57:53;5.72;;;0.73;;
68854;SDS011;69984;-43.570;172.580;2023-06-10T02:00:20;2.17;;;0.70;;
68854;SDS011;69984;-43.570;172.580;2023-06-10T02:02:47;6.25;;;0.50;;
68854;SDS011;69984;-43.570;172.580;2023-06-10T02:05:14;4.78;;;0.70;;
68854;SDS011;69984;-43.570;172.580;2023-06-10T02:07:41;2.97;;;0.60;;
68854;SDS011;69984;-43.570;172.580;2023-06-10T02:10:10;0.60;;;0.50;;
68854;SDS011;69984;-43.570;172.580;2023-06-10T02:12:37;3.58;;;0.75;;
68854;SDS011;69984;-43.570;172.580;2023-06-10T02:15:04;3.63;;;0.70;;
68854;SDS011;69984;-43.570;172.580;2023-06-10T02:17:31;2.55;;;1.10;;
68854;SDS011;69984;-43.570;172.580;2023-06-10T02:19:58;7.20;;;0.77;;
68854;SDS011;69984;-43.570;172.580;2023-06-10T02:22:29;1.08;;;0.60;;
68854;SDS011;69984;-43.570;172.580;2023-06-10T02:24:56;4.13;;;0.57;;
68854;SDS011;69984;-43.570;172.580;2023-06-10T02:27:23;5.45;;;0.90;;
68854;SDS011;69984;-43.570;172.580;2023-06-10T02:29:51;5.13;;;0.75;;
68854;SDS011;69984;-43.570;172.580;2023-06-10T02:32:18;1.02;;;0.50;;
68854;SDS011;69984;-43.570;172.580;2023-06-10T02:34:45;4.40;;;0.70;;
68854;SDS011;69984;-43.570;172.580;2023-06-10T02:37:14;9.75;;;0.82;;
68854;SDS011;69984;-43.570;172.580;2023-06-10T02:39:42;6.15;;;1.10;;
68854;SDS011;69984;-43.570;172.580;2023-06-10T02:42:09;4.53;;;0.98;;
68854;SDS011;69984;-43.570;172.580;2023-06-10T02:44:37;7.88;;;1.17;;
68854;SDS011;69984;-43.570;172.580;2023-06-10T02:47:05;7.70;;;1.10;;
68854;SDS011;69984;-43.570;172.580;2023-06-10T02:49:32;6.45;;;0.90;;
68854;SDS011;69984;-43.570;172.580;2023-06-10T02:52:00;5.15;;;0.77;;
68854;SDS011;69984;-43.570;172.580;2023-06-10T02:54:27;3.15;;;1.10;;
68854;SDS011;69984;-43.570;172.580;2023-06-10T02:56:54;6.13;;;1.48;;
68854;SDS011;69984;-43.570;172.580;2023-06-10T02:59:21;6.05;;;0.80;;
68854;SDS011;69984;-43.570;172.580;2023-06-10T03:01:49;5.95;;;1.00;;
68854;SDS011;69984;-43.570;172.580;2023-06-10T03:04:16;6.65;;;1.00;;
68854;SDS011;69984;-43.570;172.580;2023-06-10T03:06:43;4.60;;;0.90;;
68854;SDS011;69984;-43.570;172.580;2023-06-10T03:09:11;5.72;;;0.77;;
68854;SDS011;69984;-43.570;172.580;2023-06-10T03:11:39;4.97;;;0.90;;
68854;SDS011;69984;-43.570;172.580;2023-06-10T03:14:06;7.30;;;0.75;;
68854;SDS011;69984;-43.570;172.580;2023-06-10T03:16:33;16.77;;;1.17;;
68854;SDS011;69984;-43.570;172.580;2023-06-10T03:19:00;4.90;;;0.90;;
68854;SDS011;69984;-43.570;172.580;2023-06-10T03:21:28;2.92;;;1.42;;
68854;SDS011;69984;-43.570;172.580;2023-06-10T03:23:55;7.50;;;0.85;;
68854;SDS011;69984;-43.570;172.580;2023-06-10T03:26:22;9.13;;;1.25;;
68854;SDS011;69984;-43.570;172.580;2023-06-10T03:28:49;8.13;;;1.23;;
68854;SDS011;69984;-43.570;172.580;2023-06-10T03:31:16;9.68;;;1.15;;
68854;SDS011;69984;-43.570;172.580;2023-06-10T03:33:44;8.30;;;1.13;;
68854;SDS011;69984;-43.570;172.580;2023-06-10T03:36:11;1.23;;;0.60;;
68854;SDS011;69984;-43.570;172.580;2023-06-10T03:38:38;4.55;;;1.10;;
68854;SDS011;69984;-43.570;172.580;2023-06-10T03:41:05;3.60;;;1.17;;
68854;SDS011;69984;-43.570;172.580;2023-06-10T03:43:32;11.18;;;0.95;;
68854;SDS011;69984;-43.570;172.580;2023-06-10T03:46:00;6.18;;;1.63;;
68854;SDS011;69984;-43.570;172.580;2023-06-10T03:48:28;5.03;;;1.20;;
68854;SDS011;69984;-43.570;172.580;2023-06-10T03:50:56;3.45;;;1.30;;
68854;SDS011;69984;-43.570;172.580;2023-06-10T03:53:24;7.03;;;0.90;;
68854;SDS011;69984;-43.570;172.580;2023-06-10T03:55:51;9.80;;;1.20;;
68854;SDS011;69984;-43.570;172.580;2023-06-10T03:58:18;6.10;;;0.95;;
68854;SDS011;69984;-43.570;172.580;2023-06-10T04:00:45;7.95;;;0.93;;
68854;SDS011;69984;-43.570;172.580;2023-06-10T04:03:12;3.22;;;1.08;;
68854;SDS011;69984;-43.570;172.580;2023-06-10T04:05:40;7.47;;;1.08;;
68854;SDS011;69984;-43.570;172.580;2023-06-10T04:08:08;12.73;;;1.50;;
68854;SDS011;69984;-43.570;172.580;2023-06-10T04:10:35;11.35;;;1.45;;
68854;SDS011;69984;-43.570;172.580;2023-06-10T04:13:02;5.50;;;1.55;;
68854;SDS011;69984;-43.570;172.580;2023-06-10T04:15:30;9.13;;;1.33;;
68854;SDS011;69984;-43.570;172.580;2023-06-10T04:17:59;5.53;;;1.17;;
68854;SDS011;69984;-43.570;172.580;2023-06-10T04:20:27;8.30;;;1.52;;
68854;SDS011;69984;-43.570;172.580;2023-06-10T04:22:54;11.45;;;1.55;;
68854;SDS011;69984;-43.570;172.580;2023-06-10T04:25:21;16.85;;;1.50;;
68854;SDS011;69984;-43.570;172.580;2023-06-10T04:27:49;6.88;;;1.58;;
68854;SDS011;69984;-43.570;172.580;2023-06-10T04:30:17;10.45;;;1.38;;
68854;SDS011;69984;-43.570;172.580;2023-06-10T04:32:44;4.40;;;0.93;;
68854;SDS011;69984;-43.570;172.580;2023-06-10T04:35:12;10.13;;;1.17;;
68854;SDS011;69984;-43.570;172.580;2023-06-10T04:37:42;5.20;;;1.10;;
68854;SDS011;69984;-43.570;172.580;2023-06-10T04:40:09;12.20;;;1.38;;
68854;SDS011;69984;-43.570;172.580;2023-06-10T04:42:37;11.80;;;1.50;;
68854;SDS011;69984;-43.570;172.580;2023-06-10T04:45:04;5.72;;;1.48;;
68854;SDS011;69984;-43.570;172.580;2023-06-10T04:47:31;8.82;;;1.10;;
68854;SDS011;69984;-43.570;172.580;2023-06-10T04:50:01;5.60;;;1.13;;
68854;SDS011;69984;-43.570;172.580;2023-06-10T04:52:29;3.75;;;1.13;;
68854;SDS011;69984;-43.570;172.580;2023-06-10T04:54:57;10.23;;;2.00;;
68854;SDS011;69984;-43.570;172.580;2023-06-10T04:57:24;11.98;;;1.42;;
68854;SDS011;69984;-43.570;172.580;2023-06-10T04:59:52;2.83;;;0.93;;
68854;SDS011;69984;-43.570;172.580;2023-06-10T05:02:19;9.43;;;1.50;;
68854;SDS011;69984;-43.570;172.580;2023-06-10T05:04:46;7.25;;;1.33;;
68854;SDS011;69984;-43.570;172.580;2023-06-10T05:07:13;9.75;;;1.60;;
68854;SDS011;69984;-43.570;172.580;2023-06-10T05:09:40;10.80;;;1.83;;
68854;SDS011;69984;-43.570;172.580;2023-06-10T05:12:07;18.33;;;1.60;;
68854;SDS011;69984;-43.570;172.580;2023-06-10T05:14:35;6.68;;;1.10;;
68854;SDS011;69984;-43.570;172.580;2023-06-10T05:17:02;9.15;;;1.30;;
68854;SDS011;69984;-43.570;172.580;2023-06-10T05:19:31;20.85;;;1.63;;
68854;SDS011;69984;-43.570;172.580;2023-06-10T05:21:58;18.83;;;2.00;;
68854;SDS011;69984;-43.570;172.580;2023-06-10T05:24:25;12.70;;;1.70;;
68854;SDS011;69984;-43.570;172.580;2023-06-10T05:26:52;7.60;;;1.20;;
68854;SDS011;69984;-43.570;172.580;2023-06-10T05:29:19;5.70;;;0.77;;
68854;SDS011;69984;-43.570;172.580;2023-06-10T05:31:46;11.85;;;1.30;;
68854;SDS011;69984;-43.570;172.580;2023-06-10T05:34:13;11.70;;;1.20;;
68854;SDS011;69984;-43.570;172.580;2023-06-10T05:36:40;8.90;;;1.90;;
68854;SDS011;69984;-43.570;172.580;2023-06-10T05:39:08;11.23;;;1.35;;
68854;SDS011;69984;-43.570;172.580;2023-06-10T05:41:36;8.25;;;1.85;;
68854;SDS011;69984;-43.570;172.580;2023-06-10T05:44:03;9.65;;;1.30;;
68854;SDS011;69984;-43.570;172.580;2023-06-10T05:46:30;6.15;;;0.90;;
68854;SDS011;69984;-43.570;172.580;2023-06-10T05:48:57;9.20;;;1.23;;
68854;SDS011;69984;-43.570;172.580;2023-06-10T05:51:24;9.32;;;1.45;;
68854;SDS011;69984;-43.570;172.580;2023-06-10T05:53:51;8.55;;;1.00;;
68854;SDS011;69984;-43.570;172.580;2023-06-10T05:56:18;11.07;;;0.90;;
68854;SDS011;69984;-43.570;172.580;2023-06-10T05:58:46;9.10;;;1.15;;
68854;SDS011;69984;-43.570;172.580;2023-06-10T06:01:14;14.45;;;1.25;;
68854;SDS011;69984;-43.570;172.580;2023-06-10T06:03:41;10.95;;;2.17;;
68854;SDS011;69984;-43.570;172.580;2023-06-10T06:06:08;9.18;;;1.27;;
68854;SDS011;69984;-43.570;172.580;2023-06-10T06:08:35;6.80;;;0.82;;
68854;SDS011;69984;-43.570;172.580;2023-06-10T06:11:02;4.03;;;0.93;;
68854;SDS011;69984;-43.570;172.580;2023-06-10T06:13:29;7.20;;;1.20;;
68854;SDS011;69984;-43.570;172.580;2023-06-10T06:15:56;7.25;;;1.52;;
68854;SDS011;69984;-43.570;172.580;2023-06-10T06:18:23;8.55;;;1.60;;
68854;SDS011;69984;-43.570;172.580;2023-06-10T06:20:50;14.68;;;1.65;;
68854;SDS011;69984;-43.570;172.580;2023-06-10T06:23:17;6.43;;;2.30;;
68854;SDS011;69984;-43.570;172.580;2023-06-10T06:25:44;7.53;;;1.80;;
68854;SDS011;69984;-43.570;172.580;2023-06-10T06:28:11;9.02;;;2.28;;
68854;SDS011;69984;-43.570;172.580;2023-06-10T06:30:38;8.80;;;1.50;;
68854;SDS011;69984;-43.570;172.580;2023-06-10T06:33:05;10.95;;;1.98;;
68854;SDS011;69984;-43.570;172.580;2023-06-10T06:35:32;10.40;;;2.03;;
68854;SDS011;69984;-43.570;172.580;2023-06-10T06:37:59;7.72;;;2.10;;
68854;SDS011;69984;-43.570;172.580;2023-06-10T06:40:27;11.43;;;2.50;;
68854;SDS011;69984;-43.570;172.580;2023-06-10T06:42:53;14.05;;;2.10;;
68854;SDS011;69984;-43.570;172.580;2023-06-10T06:45:20;10.13;;;2.00;;
68854;SDS011;69984;-43.570;172.580;2023-06-10T06:47:47;19.80;;;3.22;;
68854;SDS011;69984;-43.570;172.580;2023-06-10T06:50:14;14.10;;;3.58;;
68854;SDS011;69984;-43.570;172.580;2023-06-10T06:52:42;11.50;;;3.20;;
68854;SDS011;69984;-43.570;172.580;2023-06-10T06:55:09;7.63;;;3.92;;
68854;SDS011;69984;-43.570;172.580;2023-06-10T06:57:36;4.80;;;3.00;;
68854;SDS011;69984;-43.570;172.580;2023-06-10T07:00:03;13.40;;;2.80;;
68854;SDS011;69984;-43.570;172.580;2023-06-10T07:02:31;7.45;;;2.70;;
68854;SDS011;69984;-43.570;172.580;2023-06-10T07:04:58;6.00;;;2.42;;
68854;SDS011;69984;-43.570;172.580;2023-06-10T07:07:26;9.07;;;2.80;;
68854;SDS011;69984;-43.570;172.580;2023-06-10T07:09:53;9.30;;;2.80;;
68854;SDS011;69984;-43.570;172.580;2023-06-10T07:12:20;3.80;;;2.40;;
68854;SDS011;69984;-43.570;172.580;2023-06-10T07:14:50;10.13;;;2.42;;
68854;SDS011;69984;-43.570;172.580;2023-06-10T07:17:17;11.50;;;2.63;;
68854;SDS011;69984;-43.570;172.580;2023-06-10T07:19:45;8.80;;;2.17;;
68854;SDS011;69984;-43.570;172.580;2023-06-10T07:22:12;7.00;;;2.13;;
68854;SDS011;69984;-43.570;172.580;2023-06-10T07:24:39;9.10;;;2.20;;
68854;SDS011;69984;-43.570;172.580;2023-06-10T07:27:06;8.23;;;2.50;;
68854;SDS011;69984;-43.570;172.580;2023-06-10T07:29:33;7.15;;;2.00;;
68854;SDS011;69984;-43.570;172.580;2023-06-10T07:32:02;6.78;;;2.45;;
68854;SDS011;69984;-43.570;172.580;2023-06-10T07:34:30;5.85;;;1.90;;
68854;SDS011;69984;-43.570;172.580;2023-06-10T07:36:57;5.20;;;2.15;;
68854;SDS011;69984;-43.570;172.580;2023-06-10T07:39:24;7.80;;;2.20;;
68854;SDS011;69984;-43.570;172.580;2023-06-10T07:41:51;9.73;;;2.08;;
68854;SDS011;69984;-43.570;172.580;2023-06-10T07:44:19;7.93;;;2.20;;
68854;SDS011;69984;-43.570;172.580;2023-06-10T07:46:46;4.90;;;2.55;;
68854;SDS011;69984;-43.570;172.580;2023-06-10T07:49:13;6.93;;;2.78;;
68854;SDS011;69984;-43.570;172.580;2023-06-10T07:51:40;6.00;;;2.92;;
68854;SDS011;69984;-43.570;172.580;2023-06-10T07:54:07;22.00;;;2.55;;
68854;SDS011;69984;-43.570;172.580;2023-06-10T07:56:34;10.32;;;3.28;;
68854;SDS011;69984;-43.570;172.580;2023-06-10T07:59:01;4.80;;;2.58;;
68854;SDS011;69984;-43.570;172.580;2023-06-10T08:01:29;10.30;;;3.22;;
68854;SDS011;69984;-43.570;172.580;2023-06-10T08:03:56;11.18;;;2.80;;
68854;SDS011;69984;-43.570;172.580;2023-06-10T08:06:24;8.18;;;2.42;;
68854;SDS011;69984;-43.570;172.580;2023-06-10T08:08:50;10.27;;;2.40;;
68854;SDS011;69984;-43.570;172.580;2023-06-10T08:11:17;5.15;;;1.95;;
68854;SDS011;69984;-43.570;172.580;2023-06-10T08:13:45;10.98;;;2.55;;
68854;SDS011;69984;-43.570;172.580;2023-06-10T08:16:12;10.38;;;2.85;;
68854;SDS011;69984;-43.570;172.580;2023-06-10T08:18:39;8.00;;;2.70;;
68854;SDS011;69984;-43.570;172.580;2023-06-10T08:21:06;11.02;;;2.40;;
68854;SDS011;69984;-43.570;172.580;2023-06-10T08:23:33;9.57;;;2.35;;
68854;SDS011;69984;-43.570;172.580;2023-06-10T08:26:00;8.70;;;1.95;;
68854;SDS011;69984;-43.570;172.580;2023-06-10T08:28:27;5.82;;;2.55;;
68854;SDS011;69984;-43.570;172.580;2023-06-10T08:30:54;7.72;;;2.50;;
68854;SDS011;69984;-43.570;172.580;2023-06-10T08:33:21;10.38;;;2.55;;
68854;SDS011;69984;-43.570;172.580;2023-06-10T08:35:48;7.93;;;2.40;;
68854;SDS011;69984;-43.570;172.580;2023-06-10T08:38:15;8.45;;;2.53;;
68854;SDS011;69984;-43.570;172.580;2023-06-10T08:40:42;8.95;;;3.03;;
68854;SDS011;69984;-43.570;172.580;2023-06-10T08:43:52;6.47;;;2.47;;
68854;SDS011;69984;-43.570;172.580;2023-06-10T08:46:19;8.70;;;2.50;;
68854;SDS011;69984;-43.570;172.580;2023-06-10T08:48:46;8.82;;;2.67;;
68854;SDS011;69984;-43.570;172.580;2023-06-10T08:51:19;7.10;;;2.75;;
68854;SDS011;69984;-43.570;172.580;2023-06-10T08:53:52;11.82;;;4.32;;
68854;SDS011;69984;-43.570;172.580;2023-06-10T08:56:26;13.13;;;3.55;;
68854;SDS011;69984;-43.570;172.580;2023-06-10T08:58:56;14.23;;;3.78;;
68854;SDS011;69984;-43.570;172.580;2023-06-10T09:01:24;12.38;;;3.20;;
68854;SDS011;69984;-43.570;172.580;2023-06-10T09:03:52;14.07;;;3.22;;
68854;SDS011;69984;-43.570;172.580;2023-06-10T09:06:20;19.38;;;2.88;;
68854;SDS011;69984;-43.570;172.580;2023-06-10T09:08:48;11.20;;;2.67;;
68854;SDS011;69984;-43.570;172.580;2023-06-10T09:11:16;8.00;;;2.35;;
68854;SDS011;69984;-43.570;172.580;2023-06-10T09:13:43;2.35;;;1.60;;
68854;SDS011;69984;-43.570;172.580;2023-06-10T09:16:10;3.05;;;1.45;;
68854;SDS011;69984;-43.570;172.580;2023-06-10T09:18:38;8.32;;;1.80;;
68854;SDS011;69984;-43.570;172.580;2023-06-10T09:21:05;8.43;;;1.70;;
68854;SDS011;69984;-43.570;172.580;2023-06-10T09:23:32;10.80;;;2.22;;
68854;SDS011;69984;-43.570;172.580;2023-06-10T09:26:00;9.27;;;2.33;;
68854;SDS011;69984;-43.570;172.580;2023-06-10T09:28:29;3.83;;;1.65;;
68854;SDS011;69984;-43.570;172.580;2023-06-10T09:31:02;5.97;;;2.55;;
68854;SDS011;69984;-43.570;172.580;2023-06-10T09:33:36;9.50;;;2.17;;
68854;SDS011;69984;-43.570;172.580;2023-06-10T09:36:07;12.43;;;2.20;;
68854;SDS011;69984;-43.570;172.580;2023-06-10T09:38:34;4.35;;;2.08;;
68854;SDS011;69984;-43.570;172.580;2023-06-10T09:41:02;6.43;;;2.15;;
68854;SDS011;69984;-43.570;172.580;2023-06-10T09:43:43;5.60;;;2.63;;
68854;SDS011;69984;-43.570;172.580;2023-06-10T09:46:18;7.28;;;2.30;;
68854;SDS011;69984;-43.570;172.580;2023-06-10T09:48:46;7.53;;;2.53;;
68854;SDS011;69984;-43.570;172.580;2023-06-10T09:51:14;7.45;;;2.13;;
68854;SDS011;69984;-43.570;172.580;2023-06-10T09:53:48;7.80;;;2.42;;
68854;SDS011;69984;-43.570;172.580;2023-06-10T09:56:18;9.65;;;2.65;;
68854;SDS011;69984;-43.570;172.580;2023-06-10T09:58:46;15.02;;;2.50;;
68854;SDS011;69984;-43.570;172.580;2023-06-10T10:01:14;7.57;;;2.22;;
68854;SDS011;69984;-43.570;172.580;2023-06-10T10:03:45;9.23;;;2.85;;
68854;SDS011;69984;-43.570;172.580;2023-06-10T10:06:13;14.35;;;2.80;;
68854;SDS011;69984;-43.570;172.580;2023-06-10T10:08:42;10.80;;;2.75;;
68854;SDS011;69984;-43.570;172.580;2023-06-10T10:11:10;14.82;;;3.30;;
68854;SDS011;69984;-43.570;172.580;2023-06-10T10:13:37;7.13;;;2.60;;
68854;SDS011;69984;-43.570;172.580;2023-06-10T10:16:12;9.82;;;2.97;;
68854;SDS011;69984;-43.570;172.580;2023-06-10T10:18:45;10.80;;;3.40;;
68854;SDS011;69984;-43.570;172.580;2023-06-10T10:21:17;20.70;;;4.65;;
68854;SDS011;69984;-43.570;172.580;2023-06-10T10:26:22;16.27;;;4.05;;
68854;SDS011;69984;-43.570;172.580;2023-06-10T10:28:56;15.07;;;3.88;;
68854;SDS011;69984;-43.570;172.580;2023-06-10T10:31:35;21.50;;;4.00;;
68854;SDS011;69984;-43.570;172.580;2023-06-10T10:34:04;18.25;;;5.00;;
68854;SDS011;69984;-43.570;172.580;2023-06-10T10:36:35;11.77;;;4.40;;
68854;SDS011;69984;-43.570;172.580;2023-06-10T10:39:04;9.95;;;5.10;;
68854;SDS011;69984;-43.570;172.580;2023-06-10T10:41:31;18.33;;;5.43;;
68854;SDS011;69984;-43.570;172.580;2023-06-10T10:44:00;16.13;;;5.57;;
68854;SDS011;69984;-43.570;172.580;2023-06-10T10:46:31;13.88;;;4.78;;
68854;SDS011;69984;-43.570;172.580;2023-06-10T10:49:14;11.75;;;4.22;;
68854;SDS011;69984;-43.570;172.580;2023-06-10T10:52:00;10.05;;;3.28;;
68854;SDS011;69984;-43.570;172.580;2023-06-10T10:54:31;13.32;;;3.55;;
68854;SDS011;69984;-43.570;172.580;2023-06-10T10:59:57;10.95;;;3.80;;
68854;SDS011;69984;-43.570;172.580;2023-06-10T11:05:17;16.08;;;3.53;;
68854;SDS011;69984;-43.570;172.580;2023-06-10T11:07:56;10.25;;;3.50;;
68854;SDS011;69984;-43.570;172.580;2023-06-10T11:10:33;14.57;;;4.60;;
68854;SDS011;69984;-43.570;172.580;2023-06-10T11:13:13;15.90;;;4.43;;
68854;SDS011;69984;-43.570;172.580;2023-06-10T11:15:44;15.77;;;4.35;;
68854;SDS011;69984;-43.570;172.580;2023-06-10T11:20:53;22.63;;;6.00;;
68854;SDS011;69984;-43.570;172.580;2023-06-10T11:29:09;18.85;;;6.93;;
68854;SDS011;69984;-43.570;172.580;2023-06-10T11:34:07;17.15;;;5.32;;
68854;SDS011;69984;-43.570;172.580;2023-06-10T11:36:42;11.98;;;4.78;;
68854;SDS011;69984;-43.570;172.580;2023-06-10T11:39:11;9.98;;;4.70;;
68854;SDS011;69984;-43.570;172.580;2023-06-10T11:41:39;18.45;;;5.20;;
68854;SDS011;69984;-43.570;172.580;2023-06-10T11:46:37;13.77;;;4.55;;
68854;SDS011;69984;-43.570;172.580;2023-06-10T11:49:05;13.60;;;5.72;;
68854;SDS011;69984;-43.570;172.580;2023-06-10T11:51:33;14.63;;;5.72;;
68854;SDS011;69984;-43.570;172.580;2023-06-10T11:54:02;16.45;;;5.93;;
68854;SDS011;69984;-43.570;172.580;2023-06-10T11:56:30;16.00;;;4.97;;
68854;SDS011;69984;-43.570;172.580;2023-06-10T12:01:33;22.38;;;6.63;;
68854;SDS011;69984;-43.570;172.580;2023-06-10T12:06:48;13.75;;;5.63;;
68854;SDS011;69984;-43.570;172.580;2023-06-10T12:11:50;17.13;;;5.82;;
68854;SDS011;69984;-43.570;172.580;2023-06-10T12:17:20;27.40;;;5.97;;
68854;SDS011;69984;-43.570;172.580;2023-06-10T12:19:48;22.15;;;6.40;;
68854;SDS011;69984;-43.570;172.580;2023-06-10T12:22:18;18.45;;;6.38;;
68854;SDS011;69984;-43.570;172.580;2023-06-10T12:24:57;18.20;;;7.53;;
68854;SDS011;69984;-43.570;172.580;2023-06-10T12:27:25;21.90;;;8.23;;
68854;SDS011;69984;-43.570;172.580;2023-06-10T12:29:55;18.30;;;8.25;;
68854;SDS011;69984;-43.570;172.580;2023-06-10T12:32:44;28.75;;;10.80;;
68854;SDS011;69984;-43.570;172.580;2023-06-10T12:35:15;20.98;;;9.60;;
68854;SDS011;69984;-43.570;172.580;2023-06-10T12:38:04;19.48;;;11.32;;
68854;SDS011;69984;-43.570;172.580;2023-06-10T12:40:34;22.75;;;11.93;;
68854;SDS011;69984;-43.570;172.580;2023-06-10T12:43:07;22.60;;;11.13;;
68854;SDS011;69984;-43.570;172.580;2023-06-10T12:45:35;21.52;;;10.00;;
68854;SDS011;69984;-43.570;172.580;2023-06-10T12:48:12;20.45;;;10.32;;
68854;SDS011;69984;-43.570;172.580;2023-06-10T12:53:20;24.50;;;10.20;;
68854;SDS011;69984;-43.570;172.580;2023-06-10T12:55:54;19.35;;;11.35;;
68854;SDS011;69984;-43.570;172.580;2023-06-10T12:58:21;26.45;;;10.65;;
68854;SDS011;69984;-43.570;172.580;2023-06-10T13:00:48;23.77;;;11.25;;
68854;SDS011;69984;-43.570;172.580;2023-06-10T13:03:18;24.27;;;11.10;;
68854;SDS011;69984;-43.570;172.580;2023-06-10T13:05:46;19.35;;;11.32;;
68854;SDS011;69984;-43.570;172.580;2023-06-10T13:08:14;17.60;;;11.10;;
68854;SDS011;69984;-43.570;172.580;2023-06-10T13:10:41;20.15;;;10.25;;
68854;SDS011;69984;-43.570;172.580;2023-06-10T13:13:08;19.73;;;10.65;;
68854;SDS011;69984;-43.570;172.580;2023-06-10T13:15:35;17.42;;;9.93;;
68854;SDS011;69984;-43.570;172.580;2023-06-10T13:18:02;27.67;;;10.65;;
68854;SDS011;69984;-43.570;172.580;2023-06-10T13:20:30;22.25;;;10.30;;
68854;SDS011;69984;-43.570;172.580;2023-06-10T13:22:57;24.48;;;10.40;;
68854;SDS011;69984;-43.570;172.580;2023-06-10T13:25:24;21.00;;;10.27;;
68854;SDS011;69984;-43.570;172.580;2023-06-10T13:27:51;23.50;;;10.68;;
68854;SDS011;69984;-43.570;172.580;2023-06-10T13:30:18;28.25;;;10.27;;
68854;SDS011;69984;-43.570;172.580;2023-06-10T13:32:45;20.02;;;9.55;;
68854;SDS011;69984;-43.570;172.580;2023-06-10T13:35:12;18.48;;;10.98;;
68854;SDS011;69984;-43.570;172.580;2023-06-10T13:37:39;21.55;;;10.48;;
68854;SDS011;69984;-43.570;172.580;2023-06-10T13:40:06;18.40;;;9.70;;
68854;SDS011;69984;-43.570;172.580;2023-06-10T13:42:35;14.80;;;9.52;;
68854;SDS011;69984;-43.570;172.580;2023-06-10T13:45:03;14.38;;;9.75;;
68854;SDS011;69984;-43.570;172.580;2023-06-10T13:47:31;15.02;;;9.68;;
68854;SDS011;69984;-43.570;172.580;2023-06-10T13:49:58;15.18;;;8.63;;
68854;SDS011;69984;-43.570;172.580;2023-06-10T13:52:25;20.70;;;9.77;;
68854;SDS011;69984;-43.570;172.580;2023-06-10T13:54:52;23.02;;;10.48;;
68854;SDS011;69984;-43.570;172.580;2023-06-10T13:57:20;25.02;;;10.80;;
68854;SDS011;69984;-43.570;172.580;2023-06-10T13:59:46;17.73;;;10.23;;
68854;SDS011;69984;-43.570;172.580;2023-06-10T14:02:14;26.67;;;11.40;;
68854;SDS011;69984;-43.570;172.580;2023-06-10T14:04:41;17.67;;;9.63;;
68854;SDS011;69984;-43.570;172.580;2023-06-10T14:07:08;19.40;;;9.88;;
68854;SDS011;69984;-43.570;172.580;2023-06-10T14:09:35;19.63;;;10.68;;
68854;SDS011;69984;-43.570;172.580;2023-06-10T14:12:01;24.70;;;10.18;;
68854;SDS011;69984;-43.570;172.580;2023-06-10T14:14:29;18.77;;;9.63;;
68854;SDS011;69984;-43.570;172.580;2023-06-10T14:16:58;14.90;;;9.40;;
68854;SDS011;69984;-43.570;172.580;2023-06-10T14:19:25;12.88;;;8.90;;
68854;SDS011;69984;-43.570;172.580;2023-06-10T14:21:52;15.95;;;7.45;;
68854;SDS011;69984;-43.570;172.580;2023-06-10T14:24:20;15.80;;;8.25;;
68854;SDS011;69984;-43.570;172.580;2023-06-10T14:26:48;13.07;;;7.78;;
68854;SDS011;69984;-43.570;172.580;2023-06-10T14:29:15;15.45;;;8.05;;
68854;SDS011;69984;-43.570;172.580;2023-06-10T14:31:43;13.55;;;8.05;;
68854;SDS011;69984;-43.570;172.580;2023-06-10T14:34:10;17.42;;;8.13;;
68854;SDS011;69984;-43.570;172.580;2023-06-10T14:36:37;13.27;;;7.65;;
68854;SDS011;69984;-43.570;172.580;2023-06-10T14:39:04;19.77;;;8.73;;
68854;SDS011;69984;-43.570;172.580;2023-06-10T14:41:31;13.77;;;8.00;;
68854;SDS011;69984;-43.570;172.580;2023-06-10T14:43:58;15.52;;;8.52;;
68854;SDS011;69984;-43.570;172.580;2023-06-10T14:46:25;14.02;;;7.78;;
68854;SDS011;69984;-43.570;172.580;2023-06-10T14:48:52;13.15;;;7.55;;
68854;SDS011;69984;-43.570;172.580;2023-06-10T14:51:19;23.67;;;8.80;;